TimeCDT,TemperatureF,Dew PointF,Humidity,Sea Level PressureIn,VisibilityMPH,Wind Direction,Wind SpeedMPH,Gust SpeedMPH,PrecipitationIn,Events,Conditions,WindDirDegrees,DateUTC
12:53 AM,69.1,61.0,75,29.86,10.0,SE,5.8,-,N/A,,Overcast,130,2013-05-16 05:53:00
1:53 AM,68.0,61.0,78,29.83,10.0,ESE,9.2,-,N/A,,Clear,110,2013-05-16 06:53:00
2:53 AM,69.1,57.9,68,29.83,10.0,SE,11.5,17.3,N/A,,Overcast,140,2013-05-16 07:53:00
3:01 AM,68.0,57.2,68,29.84,10.0,SE,11.5,18.4,N/A,,Overcast,130,2013-05-16 08:01:00
3:53 AM,68.0,59.0,73,29.83,10.0,ESE,5.8,-,N/A,,Mostly Cloudy,120,2013-05-16 08:53:00
4:43 AM,66.2,60.8,83,29.84,10.0,East,5.8,-,N/A,,Overcast,80,2013-05-16 09:43:00
4:53 AM,66.9,60.1,79,29.83,10.0,ENE,6.9,-,N/A,,Overcast,70,2013-05-16 09:53:00
5:09 AM,66.2,60.8,83,29.84,10.0,ENE,8.1,-,N/A,,Overcast,60,2013-05-16 10:09:00
5:53 AM,66.0,60.1,81,29.83,10.0,East,4.6,-,N/A,,Overcast,90,2013-05-16 10:53:00
6:36 AM,66.2,60.8,83,29.86,10.0,East,5.8,-,N/A,,Overcast,80,2013-05-16 11:36:00
6:53 AM,66.0,60.1,81,29.86,10.0,East,4.6,-,N/A,,Overcast,100,2013-05-16 11:53:00
7:53 AM,66.0,61.0,84,29.86,9.0,East,5.8,-,0.00,Rain,Light Rain,90,2013-05-16 12:53:00
8:15 AM,66.2,60.8,83,29.87,10.0,ENE,9.2,-,0.00,,Overcast,60,2013-05-16 13:15:00
8:53 AM,66.9,61.0,81,29.87,10.0,East,6.9,-,0.00,,Overcast,80,2013-05-16 13:53:00
9:29 AM,66.2,60.8,83,29.88,10.0,East,9.2,-,N/A,,Overcast,80,2013-05-16 14:29:00
9:53 AM,66.9,61.0,81,29.87,10.0,East,9.2,-,N/A,,Overcast,80,2013-05-16 14:53:00
10:10 AM,66.2,62.6,88,29.88,10.0,East,6.9,-,N/A,,Overcast,90,2013-05-16 15:10:00
10:53 AM,66.9,62.1,84,29.87,10.0,East,5.8,-,N/A,,Overcast,90,2013-05-16 15:53:00
11:53 AM,68.0,63.0,84,29.87,10.0,East,9.2,-,N/A,,Overcast,80,2013-05-16 16:53:00
12:29 PM,66.2,64.4,94,29.88,1.8,ESE,5.8,-,0.02,Rain,Rain,110,2013-05-16 17:29:00
12:39 PM,66.2,64.4,94,29.88,2.0,East,8.1,-,0.04,Rain,Light Rain,100,2013-05-16 17:39:00
12:47 PM,66.2,64.4,94,29.88,3.0,East,5.8,-,0.05,Rain,Light Rain,90,2013-05-16 17:47:00
12:53 PM,66.9,64.0,90,29.87,7.0,East,3.5,-,0.05,,Overcast,90,2013-05-16 17:53:00
1:19 PM,68.0,64.4,88,29.87,9.0,East,5.8,-,N/A,,Overcast,90,2013-05-16 18:19:00
1:32 PM,69.8,64.4,83,29.87,10.0,East,4.6,-,0.00,,Overcast,90,2013-05-16 18:32:00
1:53 PM,70.0,66.0,87,29.85,10.0,NE,5.8,-,0.00,,Overcast,50,2013-05-16 18:53:00
2:02 PM,69.8,66.2,88,29.86,10.0,NE,6.9,-,N/A,,Overcast,40,2013-05-16 19:02:00
2:09 PM,69.8,64.4,83,29.86,10.0,NE,6.9,-,N/A,,Overcast,40,2013-05-16 19:09:00
2:32 PM,71.6,64.4,78,29.85,10.0,ENE,5.8,-,N/A,,Overcast,60,2013-05-16 19:32:00
2:53 PM,71.1,64.9,81,29.84,10.0,NE,6.9,-,N/A,,Overcast,50,2013-05-16 19:53:00
3:53 PM,73.0,64.0,73,29.82,10.0,Calm,Calm,-,N/A,,Overcast,0,2013-05-16 20:53:00
4:00 PM,73.4,64.4,73,29.83,10.0,Variable,3.5,-,N/A,,Overcast,0,2013-05-16 21:00:00
4:17 PM,71.6,66.2,83,29.83,10.0,East,5.8,-,0.00,Rain,Light Rain,90,2013-05-16 21:17:00
4:48 PM,68.0,64.4,88,29.83,1.5,ESE,8.1,-,0.04,Rain,Heavy Rain,120,2013-05-16 21:48:00
4:53 PM,68.0,66.0,93,29.82,0.8,East,5.8,-,0.21,Rain,Heavy Rain,80,2013-05-16 21:53:00
5:02 PM,68.0,66.2,94,29.83,1.2,East,6.9,-,0.19,Rain,Heavy Rain,90,2013-05-16 22:02:00
5:11 PM,68.0,66.2,94,29.83,2.5,East,4.6,-,0.23,Rain,Rain,90,2013-05-16 22:11:00
5:22 PM,68.0,66.2,94,29.83,6.0,Calm,Calm,-,0.24,Rain,Light Rain,0,2013-05-16 22:22:00
5:39 PM,68.0,66.2,94,29.83,6.0,ESE,4.6,-,0.25,Rain,Light Rain,120,2013-05-16 22:39:00
5:53 PM,68.0,66.0,93,29.82,6.0,ESE,3.5,-,0.25,Rain,Light Rain,110,2013-05-16 22:53:00
6:53 PM,69.1,64.9,87,29.81,10.0,ENE,4.6,-,0.01,,Overcast,60,2013-05-16 23:53:00
7:53 PM,68.0,64.0,87,29.82,10.0,East,5.8,-,N/A,,Overcast,100,2013-05-17 00:53:00
8:53 PM,66.9,64.9,93,29.83,10.0,Calm,Calm,-,N/A,,Overcast,0,2013-05-17 01:53:00
9:53 PM,66.9,64.0,90,29.85,10.0,East,3.5,-,N/A,,Overcast,100,2013-05-17 02:53:00
10:53 PM,64.9,63.0,93,29.86,10.0,East,3.5,-,N/A,,Clear,100,2013-05-17 03:53:00
11:53 PM,64.9,62.1,90,29.87,10.0,Calm,Calm,-,N/A,,Clear,0,2013-05-17 04:53:00